METAR Data
IDs: Format: Raw Decoded Include TAF

Data at: 0122 UTC 25 Mar 2019

KOOA 250115Z AUTO 02009KT 3SM -DZ OVC010 08/08 A3005 RMK AO2 T00830075
KOOA 250055Z AUTO 04009KT 3SM -DZ OVC008 09/08 A3004 RMK AO2 T00850075
KOOA 250035Z AUTO 03010KT 3SM BR BKN008 OVC012 09/08 A3003 RMK AO2 T00870075
KOOA 250015Z AUTO 03010KT 2 1/2SM BR OVC010 09/08 A3002 RMK AO2 T00900076
KOOA 242355Z AUTO 02010KT 4SM BR SCT008 BKN012 OVC018 09/08 A3002 RMK AO2 P0001 60001 T00920080 10111 20092
KOOA 242335Z AUTO 03006KT 4SM -DZ OVC018 09/08 A3001 RMK AO2 T00920080
KOOA 242315Z AUTO 04008KT 4SM -RA OVC016 10/08 A3000 RMK AO2 T00950080
KOOA 242255Z AUTO 03008KT 5SM -DZ SCT009 OVC014 10/08 A3000 RMK AO2 T00970080
KOOA 242235Z AUTO 04008KT 5SM BR OVC014 10/08 A2999 RMK AO2 T01010082
KOOA 242215Z AUTO 03009KT 5SM BR OVC012 10/08 A2999 RMK AO2 T01030083
KOOA 242155Z AUTO 05008KT 7SM BKN012 OVC027 11/09 A2999 RMK AO2 T01080085
KOOA 242135Z AUTO 05009KT 7SM SCT009 SCT016 OVC029 11/09 A2998 RMK AO2 T01100085
KOOA 242115Z AUTO 06007KT 7SM SCT009 BKN029 OVC085 11/09 A2998 RMK AO2 T01110086
KOOA 242055Z AUTO 06006KT 7SM BKN009 BKN019 OVC085 11/08 A2998 RMK AO2 T01060083
KOOA 242035Z AUTO 06007KT 7SM -RA SCT009 BKN070 OVC085 10/09 A2997 RMK AO2 T01040085
KOOA 242015Z AUTO 05006KT 7SM -RA OVC009 10/08 A2997 RMK AO2 T01020083
KOOA 241955Z AUTO 09005KT 7SM OVC009 10/08 A2998 RMK AO2 T01020082
KOOA 241935Z AUTO 08004KT 7SM OVC009 10/08 A2998 RMK AO2 T01020081
KOOA 241915Z AUTO 00000KT 7SM OVC009 10/08 A2998 RMK AO2 T01030079
KOOA 241855Z AUTO 13004KT 7SM OVC009 10/08 A2999 RMK AO2 T01000080
KOOA 241835Z AUTO 10005KT 7SM OVC009 10/08 A2998 RMK AO2 T01000082
KOOA 241815Z AUTO 12005KT 7SM OVC007 10/08 A2999 RMK AO2 T00970081
KOOA 241755Z AUTO 13003KT 5SM -DZ BKN007 OVC019 09/08 A3000 RMK AO2 60002 T00940080 10094 20062
KOOA 241735Z AUTO 11004KT 5SM -RA BKN007 OVC019 09/08 A3001 RMK AO2 T00900077
KOOA 241715Z AUTO 11004KT 7SM SCT005 OVC019 09/08 A3001 RMK AO2 T00900075
KOOA 241655Z AUTO 12005KT 5SM BR SCT005 OVC019 09/08 A3001 RMK AO2 P0001 T00900076
KOOA 241635Z AUTO 14005KT 5SM -RA SCT007 OVC019 09/08 A3002 RMK AO2 P0001 T00870075
KOOA 241615Z AUTO 15006KT 5SM -RA BKN007 OVC019 08/07 A3002 RMK AO2 P0001 T00840074
KOOA 241555Z AUTO 15007KT 4SM RA OVC007 08/07 A3002 RMK AO2 T00830071
KOOA 241535Z AUTO 14010KT 5SM BR BKN005 OVC019 09/07 A3001 RMK AO2 T00860073
KOOA 241515Z AUTO 12009KT 5SM BR BKN005 BKN019 OVC032 08/07 A3000 RMK AO2 T00830071
KOOA 241455Z AUTO 12010KT 4SM BR BKN005 OVC030 08/07 A3000 RMK AO2 60001 T00800070
KOOA 241435Z AUTO 12008KT 4SM BR BKN005 BKN020 OVC028 08/07 A3001 RMK AO2 T00760068
KOOA 241415Z AUTO 13007KT 4SM BR OVC020 07/07 A3001 RMK AO2 T00720065
KOOA 241355Z AUTO 12008KT 4SM BR OVC022 07/07 A3001 RMK AO2 T00710065
KOOA 241335Z AUTO 12006KT 4SM BR OVC020 07/06 A3002 RMK AO2 T00680061
KOOA 241315Z AUTO 12007KT 3SM BR OVC022 07/06 A3001 RMK AO2 T00660060
KOOA 241255Z AUTO 12007KT 2 1/2SM BR OVC024 07/06 A3001 RMK AO2 T00650058
KOOA 241235Z AUTO 12006KT 3SM BR OVC024 07/06 A3002 RMK AO2 T00650060
KOOA 241215Z AUTO 12006KT 4SM BR OVC024 06/06 A3002 RMK AO2 T00640059
KOOA 241155Z AUTO 12006KT 3SM BR OVC024 06/06 A3002 RMK AO2 P0001 60020 70020 T00620057 10066 20055
KOOA 241135Z AUTO 11006KT 4SM -RA BKN024 OVC032 06/06 A3002 RMK AO2 P0001 T00600055
KOOA 241115Z AUTO 11005KT 4SM -RA BKN024 OVC030 06/06 A3002 RMK AO2 P0001 T00600055
KOOA 241055Z AUTO 12007KT 1 1/4SM -RA SCT010 SCT019 OVC028 06/06 A3002 RMK AO2 P0010 T00600055
KOOA 241035Z AUTO 13005KT 5SM -DZ OVC028 06/05 A3002 RMK AO2 T00580052
KOOA 241015Z AUTO 13005KT 5SM RA SCT026 BKN031 OVC040 06/05 A3002 RMK AO2 T00580050
KOOA 240955Z AUTO 13006KT 5SM BR SCT033 BKN042 OVC065 06/05 A3002 RMK AO2 T00560050
KOOA 240935Z AUTO 13006KT 5SM BR OVC040 06/05 A3002 RMK AO2 T00560050
KOOA 240915Z AUTO 13006KT 5SM BR OVC040 06/05 A3003 RMK AO2 T00560048
KOOA 240855Z AUTO 13007KT 7SM OVC040 06/05 A3003 RMK AO2 P0001 60009 T00550046
KOOA 240835Z AUTO 13008KT 7SM OVC040 06/05 A3004 RMK AO2 P0001 T00550045
KOOA 240815Z AUTO 14006KT 7SM SCT035 OVC042 06/05 A3005 RMK AO2 P0001 T00550045
KOOA 240755Z AUTO 14008KT 5SM -RA BKN035 OVC040 06/05 A3006 RMK AO2 P0006 T00550045
KOOA 240735Z AUTO 14008KT 4SM RA BKN042 BKN048 OVC065 06/04 A3007 RMK AO2 P0005 T00550043
KOOA 240715Z AUTO 14008KT 5SM RA BKN046 OVC055 06/04 A3007 RMK AO2 P0002 T00560041
KOOA 240655Z AUTO 14008KT 10SM -RA SCT047 BKN060 OVC070 06/04 A3007 RMK AO2 P0002 T00590040
KOOA 240635Z AUTO 15009KT 7SM RA SCT060 OVC070 06/04 A3008 RMK AO2 P0001 T00590038
KOOA 240615Z AUTO 15010KT 10SM OVC060 06/04 A3008 RMK AO2 T00610035
KOOA 240555Z AUTO 13009KT 10SM OVC060 07/03 A3008 RMK AO2 T00660032 10097 20065 401421015
KOOA 240535Z AUTO 13010KT 10SM OVC060 07/03 A3008 RMK AO2 T00670031
KOOA 240515Z AUTO 12010G14KT 10SM OVC060 07/03 A3008 RMK AO2 T00670032
KOOA 240455Z AUTO 13009KT 10SM OVC060 07/04 A3009 RMK AO2 T00660035
KOOA 240435Z AUTO 12009KT 10SM OVC060 07/03 A3009 RMK AO2 T00690033
KOOA 240415Z AUTO 12007KT 10SM OVC060 07/04 A3010 RMK AO2 T00650036
KOOA 240355Z AUTO 13007KT 10SM -RA SCT050 BKN060 OVC070 07/04 A3011 RMK AO2 T00690035
KOOA 240335Z AUTO 14006KT 10SM -RA OVC060 07/04 A3011 RMK AO2 T00690035
KOOA 240315Z AUTO 14008KT 10SM RA SCT060 OVC080 08/02 A3011 RMK AO2 T00780024
KOOA 240255Z AUTO 12009KT 10SM OVC080 08/03 A3010 RMK AO2 T00760025
KOOA 240235Z AUTO 13008KT 10SM OVC080 08/02 A3011 RMK AO2 T00800023
KOOA 240215Z AUTO 13009KT 10SM OVC080 08/02 A3011 RMK AO2 T00810022
KOOA 240155Z AUTO 12010KT 10SM BKN080 OVC100 08/02 A3010 RMK AO2 T00810022
KOOA 240135Z AUTO 13009KT 10SM OVC100 09/02 A3010 RMK AO2 T00850021
KOOA 240115Z AUTO 12010KT 10SM BKN100 OVC120 09/02 A3010 RMK AO2 T00850022
KOOA 240055Z AUTO 12008KT 10SM BKN110 09/02 A3011 RMK AO2 T00870021
KOOA 240035Z AUTO 12009KT 10SM OVC110 09/02 A3011 RMK AO2 T00910020
KOOA 240015Z AUTO 13010KT 10SM OVC100 09/02 A3012 RMK AO2 T00930021
KOOA 232355Z AUTO 13010KT 10SM OVC100 10/02 A3012 RMK AO2 T00980017 10142 20098
KOOA 232335Z AUTO 13010KT 10SM OVC100 10/02 A3012 RMK AO2 T01010022
KOOA 232315Z AUTO 12011KT 10SM BKN100 11/02 A3012 RMK AO2 T01060022
KOOA 232255Z AUTO 13012KT 10SM BKN110 11/02 A3012 RMK AO2 T01130017
KOOA 232235Z AUTO 12010KT 10SM OVC110 12/02 A3012 RMK AO2 T01170019
KOOA 232215Z AUTO 13012KT 10SM OVC110 13/02 A3013 RMK AO2 T01260018
KOOA 232155Z AUTO 12008KT 10SM OVC100 12/01 A3013 RMK AO2 T01190011
KOOA 232135Z AUTO 13009KT 10SM BKN090 OVC110 12/01 A3014 RMK AO2 T01160011
KOOA 232115Z AUTO 12010KT 10SM BKN100 OVC120 12/00 A3015 RMK AO2 T01210001
KOOA 232055Z AUTO 14013KT 10SM OVC110 12/00 A3016 RMK AO2 T01230000
KOOA 232035Z AUTO 13011KT 10SM BKN120 12/00 A3016 RMK AO2 T01230003
KOOA 232015Z AUTO 13011KT 10SM SCT110 13/00 A3016 RMK AO2 T01270003
KOOA 231955Z AUTO 13012KT 10SM CLR 13/00 A3017 RMK AO2 T01290000
KOOA 231935Z AUTO 13010G15KT 10SM CLR 13/00 A3017 RMK AO2 T01311001
KOOA 231915Z AUTO 13011KT 10SM CLR 13/00 A3018 RMK AO2 T01341001
KOOA 231855Z AUTO 13009KT 10SM CLR 13/00 A3019 RMK AO2 T01280002
KOOA 231835Z AUTO 13011KT 10SM CLR 12/01 A3020 RMK AO2 T01240006
KOOA 231815Z AUTO 15012KT 10SM CLR 12/00 A3020 RMK AO2 T01171001
KOOA 231755Z AUTO 13011G17KT 10SM CLR 12/01 A3020 RMK AO2 T01200005 10124 21015
KOOA 231735Z AUTO 13012KT 10SM CLR 12/00 A3021 RMK AO2 T01180002
KOOA 231715Z AUTO 15013KT 10SM CLR 12/01 A3021 RMK AO2 T01190012
KOOA 231655Z AUTO 17012KT 10SM CLR 11/01 A3022 RMK AO2 T01050006
KOOA 231635Z AUTO 15012G17KT 10SM CLR 10/01 A3022 RMK AO2 T01000010
KOOA 231615Z AUTO 15013KT 10SM CLR 10/01 A3023 RMK AO2 T01000013
KOOA 231555Z AUTO 16014KT 10SM CLR 09/01 A3024 RMK AO2 T00900013
KOOA 231535Z AUTO 17015G18KT 10SM CLR 09/01 A3024 RMK AO2 T00850012
KOOA 231515Z AUTO 16009KT 10SM CLR 07/02 A3024 RMK AO2 T00730018
KOOA 231455Z AUTO 15010KT 10SM CLR 06/01 A3025 RMK AO2 T00590011
KOOA 231435Z AUTO 15008KT 10SM CLR 04/01 A3025 RMK AO2 T00420005
KOOA 231415Z AUTO 15008KT 10SM CLR 03/00 A3025 RMK AO2 T00301001
KOOA 231355Z AUTO 15009KT 10SM CLR 03/00 A3025 RMK AO2 T00251005
KOOA 231335Z AUTO 12008KT 10SM CLR 02/M01 A3025 RMK AO2 T00191010